sensor_id;sensor_type;location;lat;lon;timestamp;temperature;humidity
27306;DHT22;14792;50.886;6.468;2023-07-31T00:02:56;16.60;99.90
27306;DHT22;14792;50.886;6.468;2023-07-31T00:05:58;16.60;99.90
27306;DHT22;14792;50.886;6.468;2023-07-31T00:08:59;16.70;99.90
27306;DHT22;14792;50.886;6.468;2023-07-31T00:12:01;16.70;99.90
27306;DHT22;14792;50.886;6.468;2023-07-31T00:15:03;16.70;99.90
27306;DHT22;14792;50.886;6.468;2023-07-31T00:18:05;16.70;99.90
27306;DHT22;14792;50.886;6.468;2023-07-31T00:21:06;16.70;99.90
27306;DHT22;14792;50.886;6.468;2023-07-31T00:24:11;16.70;99.90
27306;DHT22;14792;50.886;6.468;2023-07-31T00:27:13;16.70;99.90
27306;DHT22;14792;50.886;6.468;2023-07-31T00:30:14;16.70;99.90
27306;DHT22;14792;50.886;6.468;2023-07-31T00:33:16;16.70;99.90
27306;DHT22;14792;50.886;6.468;2023-07-31T00:36:18;16.60;99.90
27306;DHT22;14792;50.886;6.468;2023-07-31T00:39:19;16.70;99.90
27306;DHT22;14792;50.886;6.468;2023-07-31T00:42:21;16.70;99.90
27306;DHT22;14792;50.886;6.468;2023-07-31T00:45:22;16.70;99.90
27306;DHT22;14792;50.886;6.468;2023-07-31T00:48:24;16.70;99.90
27306;DHT22;14792;50.886;6.468;2023-07-31T00:51:26;16.70;99.90
27306;DHT22;14792;50.886;6.468;2023-07-31T00:54:27;16.70;99.90
27306;DHT22;14792;50.886;6.468;2023-07-31T00:57:29;16.80;99.90
27306;DHT22;14792;50.886;6.468;2023-07-31T01:00:30;16.80;99.90
27306;DHT22;14792;50.886;6.468;2023-07-31T01:03:32;16.80;99.90
27306;DHT22;14792;50.886;6.468;2023-07-31T01:12:55;16.80;99.90
27306;DHT22;14792;50.886;6.468;2023-07-31T01:15:57;16.90;99.90
27306;DHT22;14792;50.886;6.468;2023-07-31T01:18:59;16.80;99.90
27306;DHT22;14792;50.886;6.468;2023-07-31T01:22:24;16.80;99.90
27306;DHT22;14792;50.886;6.468;2023-07-31T01:32:12;16.80;99.90
27306;DHT22;14792;50.886;6.468;2023-07-31T01:35:14;16.80;99.90
27306;DHT22;14792;50.886;6.468;2023-07-31T01:38:16;16.80;99.90
27306;DHT22;14792;50.886;6.468;2023-07-31T01:41:20;16.80;99.90
27306;DHT22;14792;50.886;6.468;2023-07-31T01:44:22;16.80;99.90
27306;DHT22;14792;50.886;6.468;2023-07-31T01:47:23;16.80;99.90
27306;DHT22;14792;50.886;6.468;2023-07-31T01:50:25;16.80;99.90
27306;DHT22;14792;50.886;6.468;2023-07-31T01:53:26;16.80;99.90
27306;DHT22;14792;50.886;6.468;2023-07-31T01:56:28;16.90;99.90
27306;DHT22;14792;50.886;6.468;2023-07-31T01:59:29;16.90;99.90
27306;DHT22;14792;50.886;6.468;2023-07-31T02:02:31;16.90;99.90
27306;DHT22;14792;50.886;6.468;2023-07-31T02:05:33;16.90;99.90
27306;DHT22;14792;50.886;6.468;2023-07-31T02:08:34;16.90;99.90
27306;DHT22;14792;50.886;6.468;2023-07-31T02:11:36;16.90;99.90
27306;DHT22;14792;50.886;6.468;2023-07-31T02:14:37;17.00;99.90
27306;DHT22;14792;50.886;6.468;2023-07-31T02:17:43;17.00;99.90
27306;DHT22;14792;50.886;6.468;2023-07-31T02:20:54;17.00;99.90
27306;DHT22;14792;50.886;6.468;2023-07-31T02:23:46;17.10;99.90
27306;DHT22;14792;50.886;6.468;2023-07-31T02:26:48;17.10;99.90
27306;DHT22;14792;50.886;6.468;2023-07-31T02:29:49;17.10;99.90
27306;DHT22;14792;50.886;6.468;2023-07-31T02:32:51;17.10;99.90
27306;DHT22;14792;50.886;6.468;2023-07-31T02:35:53;17.10;99.90
27306;DHT22;14792;50.886;6.468;2023-07-31T02:38:54;17.10;99.90
27306;DHT22;14792;50.886;6.468;2023-07-31T02:41:56;17.10;99.90
27306;DHT22;14792;50.886;6.468;2023-07-31T02:44:57;17.10;99.90
27306;DHT22;14792;50.886;6.468;2023-07-31T02:47:59;17.10;99.90
27306;DHT22;14792;50.886;6.468;2023-07-31T02:51:01;17.20;99.90
27306;DHT22;14792;50.886;6.468;2023-07-31T02:54:02;17.20;99.90
27306;DHT22;14792;50.886;6.468;2023-07-31T02:57:04;17.20;99.90
27306;DHT22;14792;50.886;6.468;2023-07-31T03:00:06;17.20;99.90
27306;DHT22;14792;50.886;6.468;2023-07-31T03:03:07;17.20;99.90
27306;DHT22;14792;50.886;6.468;2023-07-31T03:06:12;17.10;99.90
27306;DHT22;14792;50.886;6.468;2023-07-31T03:09:13;17.10;99.90
27306;DHT22;14792;50.886;6.468;2023-07-31T03:12:15;17.10;99.90
27306;DHT22;14792;50.886;6.468;2023-07-31T03:15:17;17.10;99.90
27306;DHT22;14792;50.886;6.468;2023-07-31T03:18:18;17.20;99.90
27306;DHT22;14792;50.886;6.468;2023-07-31T03:21:20;17.20;99.90
27306;DHT22;14792;50.886;6.468;2023-07-31T03:24:21;17.10;99.90
27306;DHT22;14792;50.886;6.468;2023-07-31T03:27:23;17.10;99.90
27306;DHT22;14792;50.886;6.468;2023-07-31T03:30:25;17.10;99.90
27306;DHT22;14792;50.886;6.468;2023-07-31T03:33:26;17.10;99.90
27306;DHT22;14792;50.886;6.468;2023-07-31T03:36:28;17.10;99.90
27306;DHT22;14792;50.886;6.468;2023-07-31T03:39:29;17.10;99.90
27306;DHT22;14792;50.886;6.468;2023-07-31T03:42:31;17.10;99.90
27306;DHT22;14792;50.886;6.468;2023-07-31T03:45:32;17.00;99.90
27306;DHT22;14792;50.886;6.468;2023-07-31T03:48:34;17.00;99.90
27306;DHT22;14792;50.886;6.468;2023-07-31T03:51:36;17.10;99.90
27306;DHT22;14792;50.886;6.468;2023-07-31T03:54:37;17.10;99.90
27306;DHT22;14792;50.886;6.468;2023-07-31T03:57:41;17.10;99.90
27306;DHT22;14792;50.886;6.468;2023-07-31T04:00:44;17.10;99.90
27306;DHT22;14792;50.886;6.468;2023-07-31T04:03:45;17.10;99.90
27306;DHT22;14792;50.886;6.468;2023-07-31T04:06:47;17.10;99.90
27306;DHT22;14792;50.886;6.468;2023-07-31T04:09:48;17.20;99.90
27306;DHT22;14792;50.886;6.468;2023-07-31T04:12:50;17.20;99.90
27306;DHT22;14792;50.886;6.468;2023-07-31T04:15:51;17.20;99.90
27306;DHT22;14792;50.886;6.468;2023-07-31T04:18:56;17.30;99.90
27306;DHT22;14792;50.886;6.468;2023-07-31T04:21:58;17.30;99.90
27306;DHT22;14792;50.886;6.468;2023-07-31T04:24:59;17.30;99.90
27306;DHT22;14792;50.886;6.468;2023-07-31T04:28:01;17.30;99.90
27306;DHT22;14792;50.886;6.468;2023-07-31T04:31:03;17.40;99.90
27306;DHT22;14792;50.886;6.468;2023-07-31T04:34:04;17.40;99.90
27306;DHT22;14792;50.886;6.468;2023-07-31T04:37:06;17.40;99.90
27306;DHT22;14792;50.886;6.468;2023-07-31T04:40:07;17.40;99.90
27306;DHT22;14792;50.886;6.468;2023-07-31T04:43:13;17.40;99.90
27306;DHT22;14792;50.886;6.468;2023-07-31T04:46:14;17.40;99.90
27306;DHT22;14792;50.886;6.468;2023-07-31T04:49:16;17.40;99.90
27306;DHT22;14792;50.886;6.468;2023-07-31T04:52:17;17.50;99.90
27306;DHT22;14792;50.886;6.468;2023-07-31T04:55:19;17.50;99.90
27306;DHT22;14792;50.886;6.468;2023-07-31T04:58:21;17.50;99.90
27306;DHT22;14792;50.886;6.468;2023-07-31T05:01:22;17.50;99.90
27306;DHT22;14792;50.886;6.468;2023-07-31T05:04:24;17.50;99.90
27306;DHT22;14792;50.886;6.468;2023-07-31T05:07:26;17.50;99.90
27306;DHT22;14792;50.886;6.468;2023-07-31T05:10:28;17.50;99.90
27306;DHT22;14792;50.886;6.468;2023-07-31T05:13:30;17.50;99.90
27306;DHT22;14792;50.886;6.468;2023-07-31T05:16:31;17.60;99.90
27306;DHT22;14792;50.886;6.468;2023-07-31T05:19:33;17.50;99.90
27306;DHT22;14792;50.886;6.468;2023-07-31T05:22:34;17.50;99.90
27306;DHT22;14792;50.886;6.468;2023-07-31T05:25:36;17.60;99.90
27306;DHT22;14792;50.886;6.468;2023-07-31T05:28:38;17.60;99.90
27306;DHT22;14792;50.886;6.468;2023-07-31T05:31:42;17.60;99.90
27306;DHT22;14792;50.886;6.468;2023-07-31T05:34:44;17.60;99.90
27306;DHT22;14792;50.886;6.468;2023-07-31T05:37:45;17.60;99.90
27306;DHT22;14792;50.886;6.468;2023-07-31T05:40:47;17.60;99.90
27306;DHT22;14792;50.886;6.468;2023-07-31T05:43:49;17.60;99.90
27306;DHT22;14792;50.886;6.468;2023-07-31T05:46:50;17.60;99.90
27306;DHT22;14792;50.886;6.468;2023-07-31T05:49:52;17.60;99.90
27306;DHT22;14792;50.886;6.468;2023-07-31T05:52:53;17.60;99.90
27306;DHT22;14792;50.886;6.468;2023-07-31T05:55:55;17.50;99.90
27306;DHT22;14792;50.886;6.468;2023-07-31T05:58:56;17.40;99.90
27306;DHT22;14792;50.886;6.468;2023-07-31T06:01:58;17.30;99.90
27306;DHT22;14792;50.886;6.468;2023-07-31T06:05:00;17.30;99.90
27306;DHT22;14792;50.886;6.468;2023-07-31T06:08:01;17.20;99.90
27306;DHT22;14792;50.886;6.468;2023-07-31T06:11:03;17.20;99.90
27306;DHT22;14792;50.886;6.468;2023-07-31T06:14:05;17.10;99.90
27306;DHT22;14792;50.886;6.468;2023-07-31T06:17:06;17.10;99.90
27306;DHT22;14792;50.886;6.468;2023-07-31T06:20:08;17.10;99.90
27306;DHT22;14792;50.886;6.468;2023-07-31T06:23:13;17.20;99.90
27306;DHT22;14792;50.886;6.468;2023-07-31T06:26:15;17.30;99.90
27306;DHT22;14792;50.886;6.468;2023-07-31T06:29:16;17.30;99.90
27306;DHT22;14792;50.886;6.468;2023-07-31T06:32:18;17.40;99.90
27306;DHT22;14792;50.886;6.468;2023-07-31T06:35:20;17.50;99.90
27306;DHT22;14792;50.886;6.468;2023-07-31T06:38:26;17.60;99.90
27306;DHT22;14792;50.886;6.468;2023-07-31T06:41:27;17.70;99.90
27306;DHT22;14792;50.886;6.468;2023-07-31T06:44:29;17.80;99.90
27306;DHT22;14792;50.886;6.468;2023-07-31T06:47:30;17.80;99.90
27306;DHT22;14792;50.886;6.468;2023-07-31T06:50:32;17.90;99.90
27306;DHT22;14792;50.886;6.468;2023-07-31T06:53:34;17.90;99.90
27306;DHT22;14792;50.886;6.468;2023-07-31T06:56:35;17.90;99.90
27306;DHT22;14792;50.886;6.468;2023-07-31T06:59:37;18.00;99.90
27306;DHT22;14792;50.886;6.468;2023-07-31T07:02:42;18.00;99.90
27306;DHT22;14792;50.886;6.468;2023-07-31T07:05:44;17.90;99.90
27306;DHT22;14792;50.886;6.468;2023-07-31T07:08:46;17.90;99.90
27306;DHT22;14792;50.886;6.468;2023-07-31T07:11:47;17.90;99.90
27306;DHT22;14792;50.886;6.468;2023-07-31T07:14:49;17.80;99.90
27306;DHT22;14792;50.886;6.468;2023-07-31T07:17:50;17.80;99.90
27306;DHT22;14792;50.886;6.468;2023-07-31T07:20:52;17.80;99.90
27306;DHT22;14792;50.886;6.468;2023-07-31T07:23:53;17.80;99.90
27306;DHT22;14792;50.886;6.468;2023-07-31T07:26:55;17.80;99.90
27306;DHT22;14792;50.886;6.468;2023-07-31T07:29:57;17.80;99.90
27306;DHT22;14792;50.886;6.468;2023-07-31T07:32:58;17.70;99.90
27306;DHT22;14792;50.886;6.468;2023-07-31T07:36:04;17.60;99.90
27306;DHT22;14792;50.886;6.468;2023-07-31T07:39:06;17.40;99.90
27306;DHT22;14792;50.886;6.468;2023-07-31T07:42:08;17.30;99.90
27306;DHT22;14792;50.886;6.468;2023-07-31T07:45:13;17.20;99.90
27306;DHT22;14792;50.886;6.468;2023-07-31T07:48:15;17.20;99.90
27306;DHT22;14792;50.886;6.468;2023-07-31T07:51:17;17.20;99.90
27306;DHT22;14792;50.886;6.468;2023-07-31T07:54:18;17.20;99.90
27306;DHT22;14792;50.886;6.468;2023-07-31T07:57:20;17.20;99.90
27306;DHT22;14792;50.886;6.468;2023-07-31T08:00:21;17.20;99.90
27306;DHT22;14792;50.886;6.468;2023-07-31T08:03:23;17.30;99.90
27306;DHT22;14792;50.886;6.468;2023-07-31T08:06:24;17.30;99.90
27306;DHT22;14792;50.886;6.468;2023-07-31T08:09:26;17.40;99.90
27306;DHT22;14792;50.886;6.468;2023-07-31T08:12:28;17.60;99.90
27306;DHT22;14792;50.886;6.468;2023-07-31T08:15:29;17.60;99.90
27306;DHT22;14792;50.886;6.468;2023-07-31T08:18:31;17.70;99.90
27306;DHT22;14792;50.886;6.468;2023-07-31T08:21:33;18.00;99.90
27306;DHT22;14792;50.886;6.468;2023-07-31T08:24:34;18.00;99.90
27306;DHT22;14792;50.886;6.468;2023-07-31T08:27:36;18.10;99.90
27306;DHT22;14792;50.886;6.468;2023-07-31T08:30:37;18.00;99.90
27306;DHT22;14792;50.886;6.468;2023-07-31T08:33:42;18.00;99.90
27306;DHT22;14792;50.886;6.468;2023-07-31T08:36:44;17.90;99.90
27306;DHT22;14792;50.886;6.468;2023-07-31T08:39:45;17.90;99.90
27306;DHT22;14792;50.886;6.468;2023-07-31T08:42:48;17.80;99.90
27306;DHT22;14792;50.886;6.468;2023-07-31T08:45:49;17.70;99.90
27306;DHT22;14792;50.886;6.468;2023-07-31T08:48:51;17.80;99.90
27306;DHT22;14792;50.886;6.468;2023-07-31T08:51:52;17.80;99.90
27306;DHT22;14792;50.886;6.468;2023-07-31T08:54:54;17.80;99.90
27306;DHT22;14792;50.886;6.468;2023-07-31T08:57:55;17.80;99.90
27306;DHT22;14792;50.886;6.468;2023-07-31T09:00:58;17.80;99.90
27306;DHT22;14792;50.886;6.468;2023-07-31T09:03:59;17.80;99.90
27306;DHT22;14792;50.886;6.468;2023-07-31T09:07:01;17.90;99.90
27306;DHT22;14792;50.886;6.468;2023-07-31T09:10:03;17.90;99.90
27306;DHT22;14792;50.886;6.468;2023-07-31T09:13:03;17.90;99.90
27306;DHT22;14792;50.886;6.468;2023-07-31T09:16:05;18.10;99.90
27306;DHT22;14792;50.886;6.468;2023-07-31T09:19:07;18.30;99.90
27306;DHT22;14792;50.886;6.468;2023-07-31T09:25:24;18.50;99.90
27306;DHT22;14792;50.886;6.468;2023-07-31T09:28:30;18.60;99.90
27306;DHT22;14792;50.886;6.468;2023-07-31T09:31:42;18.70;99.90
27306;DHT22;14792;50.886;6.468;2023-07-31T09:34:43;19.00;99.90
27306;DHT22;14792;50.886;6.468;2023-07-31T09:37:48;19.00;99.90
27306;DHT22;14792;50.886;6.468;2023-07-31T09:40:47;19.20;99.90
27306;DHT22;14792;50.886;6.468;2023-07-31T09:43:54;19.30;99.90
27306;DHT22;14792;50.886;6.468;2023-07-31T09:46:56;19.20;99.90
27306;DHT22;14792;50.886;6.468;2023-07-31T09:49:57;19.10;99.90
27306;DHT22;14792;50.886;6.468;2023-07-31T09:52:59;19.20;99.90
27306;DHT22;14792;50.886;6.468;2023-07-31T09:56:01;19.10;99.90
27306;DHT22;14792;50.886;6.468;2023-07-31T09:59:02;19.00;99.90
27306;DHT22;14792;50.886;6.468;2023-07-31T10:02:04;18.80;99.90
27306;DHT22;14792;50.886;6.468;2023-07-31T10:05:06;18.90;99.90
27306;DHT22;14792;50.886;6.468;2023-07-31T10:08:09;18.80;99.90
27306;DHT22;14792;50.886;6.468;2023-07-31T10:11:13;18.80;99.90
27306;DHT22;14792;50.886;6.468;2023-07-31T10:14:15;19.20;99.90
27306;DHT22;14792;50.886;6.468;2023-07-31T10:17:16;19.50;99.90
27306;DHT22;14792;50.886;6.468;2023-07-31T10:20:19;19.70;99.90
27306;DHT22;14792;50.886;6.468;2023-07-31T10:23:22;19.80;99.90
27306;DHT22;14792;50.886;6.468;2023-07-31T10:26:23;19.90;99.90
27306;DHT22;14792;50.886;6.468;2023-07-31T10:29:24;19.60;99.90
27306;DHT22;14792;50.886;6.468;2023-07-31T10:32:26;19.60;99.90
27306;DHT22;14792;50.886;6.468;2023-07-31T10:35:27;19.40;99.90
27306;DHT22;14792;50.886;6.468;2023-07-31T10:38:29;19.40;99.90
27306;DHT22;14792;50.886;6.468;2023-07-31T10:41:31;19.40;99.90
27306;DHT22;14792;50.886;6.468;2023-07-31T10:44:32;19.50;99.90
27306;DHT22;14792;50.886;6.468;2023-07-31T10:47:37;19.20;99.90
27306;DHT22;14792;50.886;6.468;2023-07-31T10:50:38;19.30;99.90
27306;DHT22;14792;50.886;6.468;2023-07-31T10:53:42;19.30;99.90
27306;DHT22;14792;50.886;6.468;2023-07-31T10:56:49;19.30;99.90
27306;DHT22;14792;50.886;6.468;2023-07-31T10:59:49;19.40;99.90
27306;DHT22;14792;50.886;6.468;2023-07-31T11:06:01;19.70;99.90
27306;DHT22;14792;50.886;6.468;2023-07-31T11:09:02;20.10;99.90
27306;DHT22;14792;50.886;6.468;2023-07-31T11:12:04;20.20;99.90
27306;DHT22;14792;50.886;6.468;2023-07-31T11:15:05;20.50;99.90
27306;DHT22;14792;50.886;6.468;2023-07-31T11:18:07;20.30;99.90
27306;DHT22;14792;50.886;6.468;2023-07-31T11:21:15;20.30;99.90
27306;DHT22;14792;50.886;6.468;2023-07-31T11:24:16;20.40;99.90
27306;DHT22;14792;50.886;6.468;2023-07-31T11:27:18;20.70;99.90
27306;DHT22;14792;50.886;6.468;2023-07-31T11:30:20;20.60;99.90
27306;DHT22;14792;50.886;6.468;2023-07-31T11:33:21;20.50;99.90
27306;DHT22;14792;50.886;6.468;2023-07-31T11:36:23;20.50;99.90
27306;DHT22;14792;50.886;6.468;2023-07-31T11:39:24;20.20;99.90
27306;DHT22;14792;50.886;6.468;2023-07-31T11:42:26;20.10;99.90
27306;DHT22;14792;50.886;6.468;2023-07-31T11:45:27;20.10;99.90
27306;DHT22;14792;50.886;6.468;2023-07-31T11:48:30;20.10;99.90
27306;DHT22;14792;50.886;6.468;2023-07-31T11:51:31;19.80;99.90
27306;DHT22;14792;50.886;6.468;2023-07-31T11:54:32;19.80;99.90
27306;DHT22;14792;50.886;6.468;2023-07-31T11:57:34;19.70;99.90
27306;DHT22;14792;50.886;6.468;2023-07-31T12:00:35;19.50;99.90
27306;DHT22;14792;50.886;6.468;2023-07-31T12:03:37;19.50;99.90
27306;DHT22;14792;50.886;6.468;2023-07-31T12:06:42;19.40;99.90
27306;DHT22;14792;50.886;6.468;2023-07-31T12:09:53;19.40;99.90
27306;DHT22;14792;50.886;6.468;2023-07-31T12:13:01;19.40;99.90
27306;DHT22;14792;50.886;6.468;2023-07-31T12:16:02;19.30;99.90
27306;DHT22;14792;50.886;6.468;2023-07-31T12:19:03;19.40;99.90
27306;DHT22;14792;50.886;6.468;2023-07-31T12:22:14;19.50;99.90
27306;DHT22;14792;50.886;6.468;2023-07-31T12:25:15;19.50;99.90
27306;DHT22;14792;50.886;6.468;2023-07-31T12:28:17;19.60;99.90
27306;DHT22;14792;50.886;6.468;2023-07-31T12:31:19;19.60;99.90
27306;DHT22;14792;50.886;6.468;2023-07-31T12:34:20;19.50;99.90
27306;DHT22;14792;50.886;6.468;2023-07-31T12:37:22;19.40;99.90
27306;DHT22;14792;50.886;6.468;2023-07-31T12:40:23;19.50;99.90
27306;DHT22;14792;50.886;6.468;2023-07-31T12:43:25;19.50;99.90
27306;DHT22;14792;50.886;6.468;2023-07-31T12:46:26;19.60;99.90
27306;DHT22;14792;50.886;6.468;2023-07-31T12:49:28;19.70;99.90
27306;DHT22;14792;50.886;6.468;2023-07-31T12:52:30;19.60;99.90
27306;DHT22;14792;50.886;6.468;2023-07-31T12:55:32;19.70;99.90
27306;DHT22;14792;50.886;6.468;2023-07-31T12:58:33;19.60;99.90
27306;DHT22;14792;50.886;6.468;2023-07-31T13:01:34;19.60;99.90
27306;DHT22;14792;50.886;6.468;2023-07-31T13:04:43;19.90;99.90
27306;DHT22;14792;50.886;6.468;2023-07-31T13:07:44;19.90;99.90
27306;DHT22;14792;50.886;6.468;2023-07-31T13:10:46;20.00;99.90
27306;DHT22;14792;50.886;6.468;2023-07-31T13:13:47;20.30;99.90
27306;DHT22;14792;50.886;6.468;2023-07-31T13:16:49;20.40;99.90
27306;DHT22;14792;50.886;6.468;2023-07-31T13:19:51;20.50;99.90
27306;DHT22;14792;50.886;6.468;2023-07-31T13:22:52;20.60;99.90
27306;DHT22;14792;50.886;6.468;2023-07-31T13:25:54;20.70;99.90
27306;DHT22;14792;50.886;6.468;2023-07-31T13:28:55;20.70;99.90
27306;DHT22;14792;50.886;6.468;2023-07-31T13:31:57;20.90;99.90
27306;DHT22;14792;50.886;6.468;2023-07-31T13:34:59;21.10;99.90
27306;DHT22;14792;50.886;6.468;2023-07-31T13:38:00;21.80;99.90
27306;DHT22;14792;50.886;6.468;2023-07-31T13:41:02;22.40;99.90
27306;DHT22;14792;50.886;6.468;2023-07-31T13:44:03;22.40;99.90
27306;DHT22;14792;50.886;6.468;2023-07-31T13:47:05;22.30;99.90
27306;DHT22;14792;50.886;6.468;2023-07-31T13:50:07;22.00;99.90
27306;DHT22;14792;50.886;6.468;2023-07-31T13:53:08;21.90;99.90
27306;DHT22;14792;50.886;6.468;2023-07-31T13:56:13;21.90;99.90
27306;DHT22;14792;50.886;6.468;2023-07-31T13:59:15;21.70;99.90
27306;DHT22;14792;50.886;6.468;2023-07-31T14:02:16;21.50;99.90
27306;DHT22;14792;50.886;6.468;2023-07-31T14:05:18;21.30;99.90
27306;DHT22;14792;50.886;6.468;2023-07-31T14:08:19;21.10;99.90
27306;DHT22;14792;50.886;6.468;2023-07-31T14:11:21;21.10;99.90
27306;DHT22;14792;50.886;6.468;2023-07-31T14:14:23;21.10;99.90
27306;DHT22;14792;50.886;6.468;2023-07-31T14:17:24;21.00;99.90
27306;DHT22;14792;50.886;6.468;2023-07-31T14:20:26;21.00;99.90
27306;DHT22;14792;50.886;6.468;2023-07-31T14:23:27;21.10;99.90
27306;DHT22;14792;50.886;6.468;2023-07-31T14:26:29;21.10;99.90
27306;DHT22;14792;50.886;6.468;2023-07-31T14:29:31;21.00;99.90
27306;DHT22;14792;50.886;6.468;2023-07-31T14:32:32;21.00;99.90
27306;DHT22;14792;50.886;6.468;2023-07-31T14:35:34;20.90;99.90
27306;DHT22;14792;50.886;6.468;2023-07-31T14:38:35;20.80;99.90
27306;DHT22;14792;50.886;6.468;2023-07-31T14:41:37;20.70;99.90
27306;DHT22;14792;50.886;6.468;2023-07-31T14:44:39;20.70;99.90
27306;DHT22;14792;50.886;6.468;2023-07-31T14:47:44;20.70;99.90
27306;DHT22;14792;50.886;6.468;2023-07-31T14:50:46;20.70;99.90
27306;DHT22;14792;50.886;6.468;2023-07-31T14:53:47;20.60;99.90
27306;DHT22;14792;50.886;6.468;2023-07-31T14:56:49;20.60;99.90
27306;DHT22;14792;50.886;6.468;2023-07-31T14:59:51;20.50;99.90
27306;DHT22;14792;50.886;6.468;2023-07-31T15:02:52;20.30;99.90
27306;DHT22;14792;50.886;6.468;2023-07-31T15:05:54;20.20;99.90
27306;DHT22;14792;50.886;6.468;2023-07-31T15:08:55;20.10;99.90
27306;DHT22;14792;50.886;6.468;2023-07-31T15:11:57;20.20;99.90
27306;DHT22;14792;50.886;6.468;2023-07-31T15:14:59;20.20;99.90
27306;DHT22;14792;50.886;6.468;2023-07-31T15:18:00;20.20;99.90
27306;DHT22;14792;50.886;6.468;2023-07-31T15:21:02;20.10;99.90
27306;DHT22;14792;50.886;6.468;2023-07-31T15:24:03;20.00;99.90
27306;DHT22;14792;50.886;6.468;2023-07-31T15:27:05;19.90;99.90
27306;DHT22;14792;50.886;6.468;2023-07-31T15:30:07;19.70;99.90
27306;DHT22;14792;50.886;6.468;2023-07-31T15:33:08;19.50;99.90
27306;DHT22;14792;50.886;6.468;2023-07-31T15:36:14;19.10;99.90
27306;DHT22;14792;50.886;6.468;2023-07-31T15:39:15;19.10;99.90
27306;DHT22;14792;50.886;6.468;2023-07-31T15:42:17;19.00;99.90
27306;DHT22;14792;50.886;6.468;2023-07-31T15:45:18;19.00;99.90
27306;DHT22;14792;50.886;6.468;2023-07-31T15:48:20;19.00;99.90
27306;DHT22;14792;50.886;6.468;2023-07-31T15:51:22;18.80;99.90
27306;DHT22;14792;50.886;6.468;2023-07-31T15:54:23;18.80;99.90
27306;DHT22;14792;50.886;6.468;2023-07-31T15:57:25;18.80;99.90
27306;DHT22;14792;50.886;6.468;2023-07-31T16:00:26;18.70;99.90
27306;DHT22;14792;50.886;6.468;2023-07-31T16:03:28;18.60;99.90
27306;DHT22;14792;50.886;6.468;2023-07-31T16:06:29;18.50;99.90
27306;DHT22;14792;50.886;6.468;2023-07-31T16:09:31;18.40;99.90
27306;DHT22;14792;50.886;6.468;2023-07-31T16:12:33;18.30;99.90
27306;DHT22;14792;50.886;6.468;2023-07-31T16:15:34;18.20;99.90
27306;DHT22;14792;50.886;6.468;2023-07-31T16:18:36;18.20;99.90
27306;DHT22;14792;50.886;6.468;2023-07-31T16:21:37;18.00;99.90
27306;DHT22;14792;50.886;6.468;2023-07-31T16:24:42;18.00;99.90
27306;DHT22;14792;50.886;6.468;2023-07-31T16:27:44;18.00;99.90
27306;DHT22;14792;50.886;6.468;2023-07-31T16:30:46;18.00;99.90
27306;DHT22;14792;50.886;6.468;2023-07-31T16:33:47;18.00;99.90
27306;DHT22;14792;50.886;6.468;2023-07-31T16:36:49;18.10;99.90
27306;DHT22;14792;50.886;6.468;2023-07-31T16:39:51;18.10;99.90
27306;DHT22;14792;50.886;6.468;2023-07-31T16:42:54;18.20;99.90
27306;DHT22;14792;50.886;6.468;2023-07-31T16:45:56;18.20;99.90
27306;DHT22;14792;50.886;6.468;2023-07-31T16:48:57;18.20;99.90
27306;DHT22;14792;50.886;6.468;2023-07-31T16:52:00;18.20;99.90
27306;DHT22;14792;50.886;6.468;2023-07-31T16:55:01;18.30;99.90
27306;DHT22;14792;50.886;6.468;2023-07-31T16:58:03;18.30;99.90
27306;DHT22;14792;50.886;6.468;2023-07-31T17:01:05;18.30;99.90
27306;DHT22;14792;50.886;6.468;2023-07-31T17:04:07;18.30;99.90
27306;DHT22;14792;50.886;6.468;2023-07-31T17:07:09;18.30;99.90
27306;DHT22;14792;50.886;6.468;2023-07-31T17:10:12;18.20;99.90
27306;DHT22;14792;50.886;6.468;2023-07-31T17:13:14;18.10;99.90
27306;DHT22;14792;50.886;6.468;2023-07-31T17:16:16;18.00;99.90
27306;DHT22;14792;50.886;6.468;2023-07-31T17:19:17;18.00;99.90
27306;DHT22;14792;50.886;6.468;2023-07-31T17:22:19;17.90;99.90
27306;DHT22;14792;50.886;6.468;2023-07-31T17:25:20;17.90;99.90
27306;DHT22;14792;50.886;6.468;2023-07-31T17:28:22;17.90;99.90
27306;DHT22;14792;50.886;6.468;2023-07-31T17:31:23;17.80;99.90
27306;DHT22;14792;50.886;6.468;2023-07-31T17:34:25;17.80;99.90
27306;DHT22;14792;50.886;6.468;2023-07-31T17:37:27;17.80;99.90
27306;DHT22;14792;50.886;6.468;2023-07-31T17:40:28;17.70;99.90
27306;DHT22;14792;50.886;6.468;2023-07-31T17:43:30;17.70;99.90
27306;DHT22;14792;50.886;6.468;2023-07-31T17:46:31;17.60;99.90
27306;DHT22;14792;50.886;6.468;2023-07-31T17:49:33;17.60;99.90
27306;DHT22;14792;50.886;6.468;2023-07-31T17:52:34;17.60;99.90
27306;DHT22;14792;50.886;6.468;2023-07-31T17:55:37;17.60;99.90
27306;DHT22;14792;50.886;6.468;2023-07-31T17:58:38;17.60;99.90
27306;DHT22;14792;50.886;6.468;2023-07-31T18:01:44;17.60;99.90
27306;DHT22;14792;50.886;6.468;2023-07-31T18:04:46;17.60;99.90
27306;DHT22;14792;50.886;6.468;2023-07-31T18:07:47;17.60;99.90
27306;DHT22;14792;50.886;6.468;2023-07-31T18:10:49;17.50;99.90
27306;DHT22;14792;50.886;6.468;2023-07-31T18:13:50;17.50;99.90
27306;DHT22;14792;50.886;6.468;2023-07-31T18:16:52;17.50;99.90
27306;DHT22;14792;50.886;6.468;2023-07-31T18:19:54;17.50;99.90
27306;DHT22;14792;50.886;6.468;2023-07-31T18:22:55;17.50;99.90
27306;DHT22;14792;50.886;6.468;2023-07-31T18:25:57;17.50;99.90
27306;DHT22;14792;50.886;6.468;2023-07-31T18:28:58;17.50;99.90
27306;DHT22;14792;50.886;6.468;2023-07-31T18:32:00;17.50;99.90
27306;DHT22;14792;50.886;6.468;2023-07-31T18:35:02;17.40;99.90
27306;DHT22;14792;50.886;6.468;2023-07-31T18:38:03;17.40;99.90
27306;DHT22;14792;50.886;6.468;2023-07-31T18:41:05;17.40;99.90
27306;DHT22;14792;50.886;6.468;2023-07-31T18:44:06;17.40;99.90
27306;DHT22;14792;50.886;6.468;2023-07-31T18:47:08;17.50;99.90
27306;DHT22;14792;50.886;6.468;2023-07-31T18:50:13;17.50;99.90
27306;DHT22;14792;50.886;6.468;2023-07-31T18:53:15;17.40;99.90
27306;DHT22;14792;50.886;6.468;2023-07-31T18:56:16;17.40;99.90
27306;DHT22;14792;50.886;6.468;2023-07-31T18:59:18;17.40;99.90
27306;DHT22;14792;50.886;6.468;2023-07-31T19:02:19;17.40;99.90
27306;DHT22;14792;50.886;6.468;2023-07-31T19:05:21;17.40;99.90
27306;DHT22;14792;50.886;6.468;2023-07-31T19:08:23;17.40;99.90
27306;DHT22;14792;50.886;6.468;2023-07-31T19:11:24;17.30;99.90
27306;DHT22;14792;50.886;6.468;2023-07-31T19:14:26;17.30;99.90
27306;DHT22;14792;50.886;6.468;2023-07-31T19:17:28;17.30;99.90
27306;DHT22;14792;50.886;6.468;2023-07-31T19:20:30;17.30;99.90
27306;DHT22;14792;50.886;6.468;2023-07-31T19:23:31;17.40;99.90
27306;DHT22;14792;50.886;6.468;2023-07-31T19:26:33;17.40;99.90
27306;DHT22;14792;50.886;6.468;2023-07-31T19:29:35;17.40;99.90